Amor, Minnesota
Current Conditions -  °F | °C
As of 4:34 AM on Thursday 23 Oct 2014 (Local Time) from KFFM Reporting Station
Haze Haze  
Wind Chill:   Ceiling: 700
Heat Index:   Visibility: 1mi
Dew Point:   Wind: 6mph
Humidity: 100%   Direction: 180°S
Pressure: 29.94"   Gusts: NA
Location:  46.3166°N, 95.7183°W
Report Text: KFFM 230934Z AUTO 18005KT 1SM BR VV007 07/07 A2994 RMK AO2
Loading
Personal Weather Stations






























Interactive Weather Map New forecast layout! Learn more

10-Day Weather Forecast

Advertisements
Track Severe Weather on mobile